sensor_id;sensor_type;location;lat;lon;timestamp;temperature;humidity
40848;DHT22;26570;50.962;5.340;2023-11-18T00:02:12;5.70;99.90
40848;DHT22;26570;50.962;5.340;2023-11-18T00:05:00;5.80;99.90
40848;DHT22;26570;50.962;5.340;2023-11-18T00:08:08;5.80;99.90
40848;DHT22;26570;50.962;5.340;2023-11-18T00:10:54;5.90;99.90
40848;DHT22;26570;50.962;5.340;2023-11-18T00:13:41;6.00;99.90
40848;DHT22;26570;50.962;5.340;2023-11-18T00:16:27;6.00;99.90
40848;DHT22;26570;50.962;5.340;2023-11-18T00:19:14;6.00;99.90
40848;DHT22;26570;50.962;5.340;2023-11-18T00:22:01;6.00;99.90
40848;DHT22;26570;50.962;5.340;2023-11-18T00:24:47;5.90;99.90
40848;DHT22;26570;50.962;5.340;2023-11-18T00:27:56;5.90;99.90
40848;DHT22;26570;50.962;5.340;2023-11-18T00:30:42;5.90;99.90
40848;DHT22;26570;50.962;5.340;2023-11-18T00:33:29;6.10;99.90
40848;DHT22;26570;50.962;5.340;2023-11-18T00:36:36;6.10;99.90
40848;DHT22;26570;50.962;5.340;2023-11-18T00:39:23;6.00;99.90
40848;DHT22;26570;50.962;5.340;2023-11-18T00:42:32;6.00;99.90
40848;DHT22;26570;50.962;5.340;2023-11-18T00:45:18;6.00;99.90
40848;DHT22;26570;50.962;5.340;2023-11-18T00:48:27;6.20;99.90
40848;DHT22;26570;50.962;5.340;2023-11-18T00:51:13;6.10;99.90
40848;DHT22;26570;50.962;5.340;2023-11-18T00:54:00;5.90;99.90
40848;DHT22;26570;50.962;5.340;2023-11-18T00:56:46;5.80;99.90
40848;DHT22;26570;50.962;5.340;2023-11-18T00:59:55;5.80;99.90
40848;DHT22;26570;50.962;5.340;2023-11-18T01:03:04;5.60;99.90
40848;DHT22;26570;50.962;5.340;2023-11-18T01:06:13;5.70;99.90
40848;DHT22;26570;50.962;5.340;2023-11-18T01:09:02;5.70;99.90
40848;DHT22;26570;50.962;5.340;2023-11-18T01:11:50;5.70;99.90
40848;DHT22;26570;50.962;5.340;2023-11-18T01:14:59;5.70;99.90
40848;DHT22;26570;50.962;5.340;2023-11-18T01:17:45;5.80;99.90
40848;DHT22;26570;50.962;5.340;2023-11-18T01:20:31;5.70;99.90
40848;DHT22;26570;50.962;5.340;2023-11-18T01:23:17;5.70;99.90
40848;DHT22;26570;50.962;5.340;2023-11-18T01:26:04;5.70;99.90
40848;DHT22;26570;50.962;5.340;2023-11-18T01:28:50;5.70;99.90
40848;DHT22;26570;50.962;5.340;2023-11-18T01:32:02;5.70;99.90
40848;DHT22;26570;50.962;5.340;2023-11-18T01:34:54;5.70;99.90
40848;DHT22;26570;50.962;5.340;2023-11-18T01:37:41;5.70;99.90
40848;DHT22;26570;50.962;5.340;2023-11-18T01:40:27;5.80;99.90
40848;DHT22;26570;50.962;5.340;2023-11-18T01:43:38;6.00;99.90
40848;DHT22;26570;50.962;5.340;2023-11-18T01:46:25;6.00;99.90
40848;DHT22;26570;50.962;5.340;2023-11-18T01:49:36;6.10;99.90
40848;DHT22;26570;50.962;5.340;2023-11-18T01:52:26;6.10;99.90
40848;DHT22;26570;50.962;5.340;2023-11-18T01:55:15;6.00;99.90
40848;DHT22;26570;50.962;5.340;2023-11-18T01:58:02;6.00;99.90
40848;DHT22;26570;50.962;5.340;2023-11-18T02:01:19;6.10;99.90
40848;DHT22;26570;50.962;5.340;2023-11-18T02:04:05;6.10;99.90
40848;DHT22;26570;50.962;5.340;2023-11-18T02:06:53;6.10;99.90
40848;DHT22;26570;50.962;5.340;2023-11-18T02:09:38;6.20;99.90
40848;DHT22;26570;50.962;5.340;2023-11-18T02:12:50;6.20;99.90
40848;DHT22;26570;50.962;5.340;2023-11-18T02:15:38;6.00;99.90
40848;DHT22;26570;50.962;5.340;2023-11-18T02:18:26;6.10;99.90
40848;DHT22;26570;50.962;5.340;2023-11-18T02:21:15;6.20;99.90
40848;DHT22;26570;50.962;5.340;2023-11-18T02:24:01;6.10;99.90
40848;DHT22;26570;50.962;5.340;2023-11-18T02:26:47;6.10;99.90
40848;DHT22;26570;50.962;5.340;2023-11-18T02:29:41;6.00;99.90
40848;DHT22;26570;50.962;5.340;2023-11-18T02:32:29;6.00;99.90
40848;DHT22;26570;50.962;5.340;2023-11-18T02:35:20;6.00;99.90
40848;DHT22;26570;50.962;5.340;2023-11-18T02:38:08;6.10;99.90
40848;DHT22;26570;50.962;5.340;2023-11-18T02:40:58;6.10;99.90
40848;DHT22;26570;50.962;5.340;2023-11-18T02:43:45;6.10;99.90
40848;DHT22;26570;50.962;5.340;2023-11-18T02:46:58;6.10;99.90
40848;DHT22;26570;50.962;5.340;2023-11-18T02:49:44;5.60;99.90
40848;DHT22;26570;50.962;5.340;2023-11-18T02:52:30;6.30;99.90
40848;DHT22;26570;50.962;5.340;2023-11-18T02:55:16;6.20;99.90
40848;DHT22;26570;50.962;5.340;2023-11-18T02:58:02;6.00;99.90
40848;DHT22;26570;50.962;5.340;2023-11-18T03:00:48;6.00;99.90
40848;DHT22;26570;50.962;5.340;2023-11-18T03:03:34;6.00;99.90
40848;DHT22;26570;50.962;5.340;2023-11-18T03:06:23;5.90;99.90
40848;DHT22;26570;50.962;5.340;2023-11-18T03:09:10;5.80;99.90
40848;DHT22;26570;50.962;5.340;2023-11-18T03:12:00;5.70;99.90
40848;DHT22;26570;50.962;5.340;2023-11-18T03:14:46;5.70;99.90
40848;DHT22;26570;50.962;5.340;2023-11-18T03:17:33;5.70;99.90
40848;DHT22;26570;50.962;5.340;2023-11-18T03:20:20;5.70;99.90
40848;DHT22;26570;50.962;5.340;2023-11-18T03:23:05;5.80;99.90
40848;DHT22;26570;50.962;5.340;2023-11-18T03:25:54;5.80;99.90
40848;DHT22;26570;50.962;5.340;2023-11-18T03:28:41;5.90;99.90
40848;DHT22;26570;50.962;5.340;2023-11-18T03:31:50;5.80;99.90
40848;DHT22;26570;50.962;5.340;2023-11-18T03:34:37;5.80;99.90
40848;DHT22;26570;50.962;5.340;2023-11-18T03:37:23;5.60;99.90
40848;DHT22;26570;50.962;5.340;2023-11-18T03:40:10;6.10;99.90
40848;DHT22;26570;50.962;5.340;2023-11-18T03:42:58;6.10;99.90
40848;DHT22;26570;50.962;5.340;2023-11-18T03:45:45;6.00;99.90
40848;DHT22;26570;50.962;5.340;2023-11-18T03:48:31;5.90;99.90
40848;DHT22;26570;50.962;5.340;2023-11-18T03:51:17;6.10;99.90
40848;DHT22;26570;50.962;5.340;2023-11-18T03:54:06;6.00;99.90
40848;DHT22;26570;50.962;5.340;2023-11-18T03:56:55;6.20;99.90
40848;DHT22;26570;50.962;5.340;2023-11-18T03:59:42;6.30;99.90
40848;DHT22;26570;50.962;5.340;2023-11-18T04:02:28;6.20;99.90
40848;DHT22;26570;50.962;5.340;2023-11-18T04:05:15;6.20;99.90
40848;DHT22;26570;50.962;5.340;2023-11-18T04:08:23;6.30;99.90
40848;DHT22;26570;50.962;5.340;2023-11-18T04:11:10;6.30;99.90
40848;DHT22;26570;50.962;5.340;2023-11-18T04:14:18;6.30;99.90
40848;DHT22;26570;50.962;5.340;2023-11-18T04:17:27;6.30;99.90
40848;DHT22;26570;50.962;5.340;2023-11-18T04:20:35;6.30;99.90
40848;DHT22;26570;50.962;5.340;2023-11-18T04:23:22;6.30;99.90
40848;DHT22;26570;50.962;5.340;2023-11-18T04:26:31;6.40;99.90
40848;DHT22;26570;50.962;5.340;2023-11-18T04:29:18;6.50;99.90
40848;DHT22;26570;50.962;5.340;2023-11-18T04:32:04;6.60;99.90
40848;DHT22;26570;50.962;5.340;2023-11-18T04:35:12;6.60;99.90
40848;DHT22;26570;50.962;5.340;2023-11-18T04:38:02;6.80;99.90
40848;DHT22;26570;50.962;5.340;2023-11-18T04:40:48;6.80;99.90
40848;DHT22;26570;50.962;5.340;2023-11-18T04:43:35;6.80;99.90
40848;DHT22;26570;50.962;5.340;2023-11-18T04:46:21;6.80;99.90
40848;DHT22;26570;50.962;5.340;2023-11-18T04:49:07;6.90;99.90
40848;DHT22;26570;50.962;5.340;2023-11-18T04:51:54;7.00;99.90
40848;DHT22;26570;50.962;5.340;2023-11-18T04:54:40;6.90;99.90
40848;DHT22;26570;50.962;5.340;2023-11-18T04:57:48;7.00;99.90
40848;DHT22;26570;50.962;5.340;2023-11-18T05:00:57;7.20;99.90
40848;DHT22;26570;50.962;5.340;2023-11-18T05:03:47;7.20;99.90
40848;DHT22;26570;50.962;5.340;2023-11-18T05:06:33;7.20;99.90
40848;DHT22;26570;50.962;5.340;2023-11-18T05:09:42;7.20;99.90
40848;DHT22;26570;50.962;5.340;2023-11-18T05:12:50;7.20;99.90
40848;DHT22;26570;50.962;5.340;2023-11-18T05:15:40;7.10;99.90
40848;DHT22;26570;50.962;5.340;2023-11-18T05:18:27;7.20;99.90
40848;DHT22;26570;50.962;5.340;2023-11-18T05:21:18;7.10;99.90
40848;DHT22;26570;50.962;5.340;2023-11-18T05:24:05;7.20;99.90
40848;DHT22;26570;50.962;5.340;2023-11-18T05:26:51;7.20;99.90
40848;DHT22;26570;50.962;5.340;2023-11-18T05:29:37;7.30;99.90
40848;DHT22;26570;50.962;5.340;2023-11-18T05:32:45;7.30;99.90
40848;DHT22;26570;50.962;5.340;2023-11-18T05:35:32;7.40;99.90
40848;DHT22;26570;50.962;5.340;2023-11-18T05:38:21;7.30;99.90
40848;DHT22;26570;50.962;5.340;2023-11-18T05:41:31;7.40;99.90
40848;DHT22;26570;50.962;5.340;2023-11-18T05:44:20;7.60;99.90
40848;DHT22;26570;50.962;5.340;2023-11-18T05:47:15;7.40;99.90
40848;DHT22;26570;50.962;5.340;2023-11-18T05:50:24;7.50;99.90
40848;DHT22;26570;50.962;5.340;2023-11-18T05:53:12;7.60;99.90
40848;DHT22;26570;50.962;5.340;2023-11-18T05:55:58;7.50;99.90
40848;DHT22;26570;50.962;5.340;2023-11-18T05:58:45;7.70;99.90
40848;DHT22;26570;50.962;5.340;2023-11-18T06:01:31;7.60;99.90
40848;DHT22;26570;50.962;5.340;2023-11-18T06:04:18;7.60;99.90
40848;DHT22;26570;50.962;5.340;2023-11-18T06:07:04;7.60;99.90
40848;DHT22;26570;50.962;5.340;2023-11-18T06:10:14;7.70;99.90
40848;DHT22;26570;50.962;5.340;2023-11-18T06:13:01;7.70;99.90
40848;DHT22;26570;50.962;5.340;2023-11-18T06:15:49;7.70;99.90
40848;DHT22;26570;50.962;5.340;2023-11-18T06:18:37;7.60;99.90
40848;DHT22;26570;50.962;5.340;2023-11-18T06:21:25;7.70;99.90
40848;DHT22;26570;50.962;5.340;2023-11-18T06:24:13;7.60;99.90
40848;DHT22;26570;50.962;5.340;2023-11-18T06:27:24;7.60;99.90
40848;DHT22;26570;50.962;5.340;2023-11-18T06:30:12;7.60;99.90
40848;DHT22;26570;50.962;5.340;2023-11-18T06:33:21;7.80;99.90
40848;DHT22;26570;50.962;5.340;2023-11-18T06:36:09;7.80;99.90
40848;DHT22;26570;50.962;5.340;2023-11-18T06:39:18;7.70;99.90
40848;DHT22;26570;50.962;5.340;2023-11-18T06:42:14;7.80;99.90
40848;DHT22;26570;50.962;5.340;2023-11-18T06:45:23;7.80;99.90
40848;DHT22;26570;50.962;5.340;2023-11-18T06:48:41;8.00;99.90
40848;DHT22;26570;50.962;5.340;2023-11-18T06:51:34;7.90;99.90
40848;DHT22;26570;50.962;5.340;2023-11-18T06:54:32;7.90;99.90
40848;DHT22;26570;50.962;5.340;2023-11-18T06:57:21;7.90;99.90
40848;DHT22;26570;50.962;5.340;2023-11-18T07:00:21;7.80;99.90
40848;DHT22;26570;50.962;5.340;2023-11-18T07:03:13;8.00;99.90
40848;DHT22;26570;50.962;5.340;2023-11-18T07:06:11;8.00;99.90
40848;DHT22;26570;50.962;5.340;2023-11-18T07:08:59;8.10;99.90
40848;DHT22;26570;50.962;5.340;2023-11-18T07:11:49;8.10;99.90
40848;DHT22;26570;50.962;5.340;2023-11-18T07:15:02;8.00;99.90
40848;DHT22;26570;50.962;5.340;2023-11-18T07:17:52;8.00;99.90
40848;DHT22;26570;50.962;5.340;2023-11-18T07:21:06;8.00;99.90
40848;DHT22;26570;50.962;5.340;2023-11-18T07:23:52;8.30;99.90
40848;DHT22;26570;50.962;5.340;2023-11-18T07:26:41;8.30;99.90
40848;DHT22;26570;50.962;5.340;2023-11-18T07:29:53;8.30;99.90
40848;DHT22;26570;50.962;5.340;2023-11-18T07:32:42;8.30;99.90
40848;DHT22;26570;50.962;5.340;2023-11-18T07:35:29;8.30;99.90
40848;DHT22;26570;50.962;5.340;2023-11-18T07:38:18;8.30;99.90
40848;DHT22;26570;50.962;5.340;2023-11-18T07:41:28;8.30;99.90
40848;DHT22;26570;50.962;5.340;2023-11-18T07:44:42;8.40;99.90
40848;DHT22;26570;50.962;5.340;2023-11-18T07:47:29;8.50;99.90
40848;DHT22;26570;50.962;5.340;2023-11-18T07:50:17;8.50;99.90
40848;DHT22;26570;50.962;5.340;2023-11-18T07:53:03;8.70;99.90
40848;DHT22;26570;50.962;5.340;2023-11-18T07:55:51;8.70;99.90
40848;DHT22;26570;50.962;5.340;2023-11-18T07:58:39;9.00;99.90
40848;DHT22;26570;50.962;5.340;2023-11-18T08:01:51;9.00;99.90
40848;DHT22;26570;50.962;5.340;2023-11-18T08:04:38;9.10;99.90
40848;DHT22;26570;50.962;5.340;2023-11-18T08:07:29;8.90;99.90
40848;DHT22;26570;50.962;5.340;2023-11-18T08:10:15;9.00;99.90
40848;DHT22;26570;50.962;5.340;2023-11-18T08:13:13;8.90;99.90
40848;DHT22;26570;50.962;5.340;2023-11-18T08:16:00;8.90;99.90
40848;DHT22;26570;50.962;5.340;2023-11-18T08:18:51;8.90;99.90
40848;DHT22;26570;50.962;5.340;2023-11-18T08:21:41;9.00;99.90
40848;DHT22;26570;50.962;5.340;2023-11-18T08:24:53;8.90;99.90
40848;DHT22;26570;50.962;5.340;2023-11-18T08:27:45;9.00;99.90
40848;DHT22;26570;50.962;5.340;2023-11-18T08:30:32;9.00;99.90
40848;DHT22;26570;50.962;5.340;2023-11-18T08:33:19;9.10;99.90
40848;DHT22;26570;50.962;5.340;2023-11-18T08:36:08;9.20;99.90
40848;DHT22;26570;50.962;5.340;2023-11-18T08:38:53;9.20;99.90
40848;DHT22;26570;50.962;5.340;2023-11-18T08:41:40;9.20;99.90
40848;DHT22;26570;50.962;5.340;2023-11-18T08:44:27;9.20;99.90
40848;DHT22;26570;50.962;5.340;2023-11-18T08:47:12;9.20;99.90
40848;DHT22;26570;50.962;5.340;2023-11-18T08:49:57;9.20;99.90
40848;DHT22;26570;50.962;5.340;2023-11-18T08:52:43;9.30;99.90
40848;DHT22;26570;50.962;5.340;2023-11-18T08:55:35;9.10;99.90
40848;DHT22;26570;50.962;5.340;2023-11-18T08:58:23;9.00;99.90
40848;DHT22;26570;50.962;5.340;2023-11-18T09:01:11;9.00;99.90
40848;DHT22;26570;50.962;5.340;2023-11-18T09:03:59;9.10;99.90
40848;DHT22;26570;50.962;5.340;2023-11-18T09:06:46;9.00;99.90
40848;DHT22;26570;50.962;5.340;2023-11-18T09:09:32;9.20;99.90
40848;DHT22;26570;50.962;5.340;2023-11-18T09:12:18;9.30;99.90
40848;DHT22;26570;50.962;5.340;2023-11-18T09:15:04;9.20;99.90
40848;DHT22;26570;50.962;5.340;2023-11-18T09:17:49;9.30;99.90
40848;DHT22;26570;50.962;5.340;2023-11-18T09:20:34;9.30;99.90
40848;DHT22;26570;50.962;5.340;2023-11-18T09:23:23;9.40;99.90
40848;DHT22;26570;50.962;5.340;2023-11-18T09:26:11;9.40;99.90
40848;DHT22;26570;50.962;5.340;2023-11-18T09:28:59;9.40;99.90
40848;DHT22;26570;50.962;5.340;2023-11-18T09:31:46;9.50;99.90
40848;DHT22;26570;50.962;5.340;2023-11-18T09:34:34;9.40;99.90
40848;DHT22;26570;50.962;5.340;2023-11-18T09:37:19;9.50;99.90
40848;DHT22;26570;50.962;5.340;2023-11-18T09:40:05;9.60;99.90
40848;DHT22;26570;50.962;5.340;2023-11-18T09:42:56;9.50;99.90
40848;DHT22;26570;50.962;5.340;2023-11-18T09:45:44;9.50;99.90
40848;DHT22;26570;50.962;5.340;2023-11-18T09:48:33;9.50;99.90
40848;DHT22;26570;50.962;5.340;2023-11-18T09:51:27;9.60;99.90
40848;DHT22;26570;50.962;5.340;2023-11-18T09:54:27;9.70;99.90
40848;DHT22;26570;50.962;5.340;2023-11-18T09:57:37;9.70;99.90
40848;DHT22;26570;50.962;5.340;2023-11-18T10:00:26;9.80;99.90
40848;DHT22;26570;50.962;5.340;2023-11-18T10:03:13;9.70;99.90
40848;DHT22;26570;50.962;5.340;2023-11-18T10:06:02;9.70;99.90
40848;DHT22;26570;50.962;5.340;2023-11-18T10:08:51;9.60;99.90
40848;DHT22;26570;50.962;5.340;2023-11-18T10:11:38;9.70;99.90
40848;DHT22;26570;50.962;5.340;2023-11-18T10:14:26;9.60;99.90
40848;DHT22;26570;50.962;5.340;2023-11-18T10:17:11;9.70;99.90
40848;DHT22;26570;50.962;5.340;2023-11-18T10:23:24;9.70;99.90
40848;DHT22;26570;50.962;5.340;2023-11-18T10:26:12;9.70;99.90
40848;DHT22;26570;50.962;5.340;2023-11-18T10:29:03;9.80;99.90
40848;DHT22;26570;50.962;5.340;2023-11-18T10:32:17;9.90;99.90
40848;DHT22;26570;50.962;5.340;2023-11-18T10:35:05;9.80;99.90
40848;DHT22;26570;50.962;5.340;2023-11-18T10:38:13;9.90;99.90
40848;DHT22;26570;50.962;5.340;2023-11-18T10:41:01;9.90;99.90
40848;DHT22;26570;50.962;5.340;2023-11-18T10:43:46;9.80;99.90
40848;DHT22;26570;50.962;5.340;2023-11-18T10:46:32;9.80;99.90
40848;DHT22;26570;50.962;5.340;2023-11-18T10:49:17;9.90;99.90
40848;DHT22;26570;50.962;5.340;2023-11-18T10:52:02;10.00;99.90
40848;DHT22;26570;50.962;5.340;2023-11-18T10:54:51;10.00;99.90
40848;DHT22;26570;50.962;5.340;2023-11-18T10:57:40;10.00;99.90
40848;DHT22;26570;50.962;5.340;2023-11-18T11:00:26;9.90;99.90
40848;DHT22;26570;50.962;5.340;2023-11-18T11:03:18;10.00;99.90
40848;DHT22;26570;50.962;5.340;2023-11-18T11:06:15;10.00;99.90
40848;DHT22;26570;50.962;5.340;2023-11-18T11:09:04;10.10;99.90
40848;DHT22;26570;50.962;5.340;2023-11-18T11:11:56;10.00;99.90
40848;DHT22;26570;50.962;5.340;2023-11-18T11:15:01;10.00;99.90
40848;DHT22;26570;50.962;5.340;2023-11-18T11:17:52;9.80;99.90
40848;DHT22;26570;50.962;5.340;2023-11-18T11:20:42;9.80;99.90
40848;DHT22;26570;50.962;5.340;2023-11-18T11:24:01;9.80;99.90
40848;DHT22;26570;50.962;5.340;2023-11-18T11:27:05;9.90;99.90
40848;DHT22;26570;50.962;5.340;2023-11-18T11:30:08;10.00;99.90
40848;DHT22;26570;50.962;5.340;2023-11-18T11:33:29;9.80;99.90
40848;DHT22;26570;50.962;5.340;2023-11-18T11:36:30;9.80;99.90
40848;DHT22;26570;50.962;5.340;2023-11-18T11:39:23;9.90;99.90
40848;DHT22;26570;50.962;5.340;2023-11-18T11:42:15;10.00;99.90
40848;DHT22;26570;50.962;5.340;2023-11-18T11:45:24;10.10;99.90
40848;DHT22;26570;50.962;5.340;2023-11-18T11:48:13;10.10;99.90
40848;DHT22;26570;50.962;5.340;2023-11-18T11:51:36;10.50;99.90
40848;DHT22;26570;50.962;5.340;2023-11-18T11:54:16;9.90;99.90
40848;DHT22;26570;50.962;5.340;2023-11-18T11:57:07;9.90;99.90
40848;DHT22;26570;50.962;5.340;2023-11-18T12:02:51;9.90;99.90
40848;DHT22;26570;50.962;5.340;2023-11-18T12:05:40;9.90;99.90
40848;DHT22;26570;50.962;5.340;2023-11-18T12:08:29;9.90;99.90
40848;DHT22;26570;50.962;5.340;2023-11-18T12:11:18;9.90;99.90
40848;DHT22;26570;50.962;5.340;2023-11-18T12:14:28;9.90;99.90
40848;DHT22;26570;50.962;5.340;2023-11-18T12:17:15;9.90;99.90
40848;DHT22;26570;50.962;5.340;2023-11-18T12:23:32;10.00;99.90
40848;DHT22;26570;50.962;5.340;2023-11-18T12:26:38;9.90;99.90
40848;DHT22;26570;50.962;5.340;2023-11-18T12:29:33;9.80;99.90
40848;DHT22;26570;50.962;5.340;2023-11-18T12:48:31;10.00;99.90
40848;DHT22;26570;50.962;5.340;2023-11-18T12:51:18;10.00;99.90
40848;DHT22;26570;50.962;5.340;2023-11-18T12:54:06;10.10;99.90
40848;DHT22;26570;50.962;5.340;2023-11-18T12:56:55;10.10;99.90
40848;DHT22;26570;50.962;5.340;2023-11-18T12:59:45;10.30;99.90
40848;DHT22;26570;50.962;5.340;2023-11-18T13:02:32;10.30;99.90
40848;DHT22;26570;50.962;5.340;2023-11-18T13:05:19;10.30;99.90
40848;DHT22;26570;50.962;5.340;2023-11-18T13:08:09;10.40;99.90
40848;DHT22;26570;50.962;5.340;2023-11-18T13:10:55;10.20;99.90
40848;DHT22;26570;50.962;5.340;2023-11-18T13:13:48;10.10;99.90
40848;DHT22;26570;50.962;5.340;2023-11-18T13:16:35;10.10;99.90
40848;DHT22;26570;50.962;5.340;2023-11-18T13:19:29;10.10;99.90
40848;DHT22;26570;50.962;5.340;2023-11-18T13:22:20;10.10;99.90
40848;DHT22;26570;50.962;5.340;2023-11-18T13:25:07;10.10;99.90
40848;DHT22;26570;50.962;5.340;2023-11-18T13:27:55;10.00;99.90
40848;DHT22;26570;50.962;5.340;2023-11-18T13:30:47;9.50;99.90
40848;DHT22;26570;50.962;5.340;2023-11-18T13:33:38;10.10;99.90
40848;DHT22;26570;50.962;5.340;2023-11-18T13:36:24;10.00;99.90
40848;DHT22;26570;50.962;5.340;2023-11-18T13:39:20;9.90;99.90
40848;DHT22;26570;50.962;5.340;2023-11-18T13:42:27;9.90;99.90
40848;DHT22;26570;50.962;5.340;2023-11-18T13:45:14;10.00;99.90
40848;DHT22;26570;50.962;5.340;2023-11-18T13:48:05;10.00;99.90
40848;DHT22;26570;50.962;5.340;2023-11-18T13:50:52;9.90;99.90
40848;DHT22;26570;50.962;5.340;2023-11-18T13:53:40;9.80;99.90
40848;DHT22;26570;50.962;5.340;2023-11-18T13:56:26;9.80;99.90
40848;DHT22;26570;50.962;5.340;2023-11-18T13:59:13;9.90;99.90
40848;DHT22;26570;50.962;5.340;2023-11-18T14:02:00;9.90;99.90
40848;DHT22;26570;50.962;5.340;2023-11-18T14:04:47;10.00;99.90
40848;DHT22;26570;50.962;5.340;2023-11-18T14:07:38;10.30;99.90
40848;DHT22;26570;50.962;5.340;2023-11-18T14:10:28;9.90;99.90
40848;DHT22;26570;50.962;5.340;2023-11-18T14:13:15;9.80;99.90
40848;DHT22;26570;50.962;5.340;2023-11-18T14:16:05;9.90;99.90
40848;DHT22;26570;50.962;5.340;2023-11-18T14:18:55;10.00;99.90
40848;DHT22;26570;50.962;5.340;2023-11-18T14:21:42;10.10;99.90
40848;DHT22;26570;50.962;5.340;2023-11-18T14:24:30;10.10;99.90
40848;DHT22;26570;50.962;5.340;2023-11-18T14:27:16;10.10;99.90
40848;DHT22;26570;50.962;5.340;2023-11-18T14:30:02;10.00;99.90
40848;DHT22;26570;50.962;5.340;2023-11-18T14:32:49;9.90;99.90
40848;DHT22;26570;50.962;5.340;2023-11-18T14:35:38;9.80;99.90
40848;DHT22;26570;50.962;5.340;2023-11-18T14:38:27;9.90;99.90
40848;DHT22;26570;50.962;5.340;2023-11-18T14:41:14;9.70;99.90
40848;DHT22;26570;50.962;5.340;2023-11-18T14:44:01;9.70;99.90
40848;DHT22;26570;50.962;5.340;2023-11-18T14:46:54;9.80;99.90
40848;DHT22;26570;50.962;5.340;2023-11-18T14:49:43;9.90;99.90
40848;DHT22;26570;50.962;5.340;2023-11-18T14:52:31;9.90;99.90
40848;DHT22;26570;50.962;5.340;2023-11-18T14:55:27;10.00;99.90
40848;DHT22;26570;50.962;5.340;2023-11-18T14:58:20;10.00;99.90
40848;DHT22;26570;50.962;5.340;2023-11-18T15:01:13;10.00;99.90
40848;DHT22;26570;50.962;5.340;2023-11-18T15:04:05;10.10;99.90
40848;DHT22;26570;50.962;5.340;2023-11-18T15:06:52;9.90;99.90
40848;DHT22;26570;50.962;5.340;2023-11-18T15:09:38;10.10;99.90
40848;DHT22;26570;50.962;5.340;2023-11-18T15:12:27;10.00;99.90
40848;DHT22;26570;50.962;5.340;2023-11-18T15:15:36;10.10;99.90
40848;DHT22;26570;50.962;5.340;2023-11-18T15:18:23;10.00;99.90
40848;DHT22;26570;50.962;5.340;2023-11-18T15:21:10;10.20;99.90
40848;DHT22;26570;50.962;5.340;2023-11-18T15:24:00;10.20;99.90
40848;DHT22;26570;50.962;5.340;2023-11-18T15:26:49;10.10;99.90
40848;DHT22;26570;50.962;5.340;2023-11-18T15:29:36;9.80;99.90
40848;DHT22;26570;50.962;5.340;2023-11-18T15:32:23;10.20;99.90
40848;DHT22;26570;50.962;5.340;2023-11-18T15:35:12;10.30;99.90
40848;DHT22;26570;50.962;5.340;2023-11-18T15:38:02;10.30;99.90
40848;DHT22;26570;50.962;5.340;2023-11-18T15:40:48;10.20;99.90
40848;DHT22;26570;50.962;5.340;2023-11-18T15:43:35;10.10;99.90
40848;DHT22;26570;50.962;5.340;2023-11-18T15:46:48;10.20;99.90
40848;DHT22;26570;50.962;5.340;2023-11-18T15:49:35;10.30;99.90
40848;DHT22;26570;50.962;5.340;2023-11-18T15:52:22;10.20;99.90
40848;DHT22;26570;50.962;5.340;2023-11-18T15:55:08;10.10;99.90
40848;DHT22;26570;50.962;5.340;2023-11-18T15:58:00;10.20;99.90
40848;DHT22;26570;50.962;5.340;2023-11-18T16:00:48;10.20;99.90
40848;DHT22;26570;50.962;5.340;2023-11-18T16:03:37;10.30;99.90
40848;DHT22;26570;50.962;5.340;2023-11-18T16:06:24;10.40;99.90
40848;DHT22;26570;50.962;5.340;2023-11-18T16:09:10;10.30;99.90
40848;DHT22;26570;50.962;5.340;2023-11-18T16:12:01;10.30;99.90
40848;DHT22;26570;50.962;5.340;2023-11-18T16:14:57;10.40;99.90
40848;DHT22;26570;50.962;5.340;2023-11-18T16:17:47;10.20;99.90
40848;DHT22;26570;50.962;5.340;2023-11-18T16:20:35;10.30;99.90
40848;DHT22;26570;50.962;5.340;2023-11-18T16:23:24;10.10;99.90
40848;DHT22;26570;50.962;5.340;2023-11-18T16:26:34;10.50;99.90
40848;DHT22;26570;50.962;5.340;2023-11-18T16:29:21;10.50;99.90
40848;DHT22;26570;50.962;5.340;2023-11-18T16:32:11;10.40;99.90
40848;DHT22;26570;50.962;5.340;2023-11-18T16:35:03;10.40;99.90
40848;DHT22;26570;50.962;5.340;2023-11-18T16:37:50;10.40;99.90
40848;DHT22;26570;50.962;5.340;2023-11-18T16:40:41;10.50;99.90
40848;DHT22;26570;50.962;5.340;2023-11-18T16:43:27;10.70;99.90
40848;DHT22;26570;50.962;5.340;2023-11-18T16:46:15;10.60;99.90
40848;DHT22;26570;50.962;5.340;2023-11-18T16:49:03;10.40;99.90
40848;DHT22;26570;50.962;5.340;2023-11-18T16:51:53;10.40;99.90
40848;DHT22;26570;50.962;5.340;2023-11-18T16:55:06;10.50;99.90
40848;DHT22;26570;50.962;5.340;2023-11-18T16:57:56;10.70;99.90
40848;DHT22;26570;50.962;5.340;2023-11-18T17:00:44;10.60;99.90
40848;DHT22;26570;50.962;5.340;2023-11-18T17:03:37;10.70;99.90
40848;DHT22;26570;50.962;5.340;2023-11-18T17:06:33;10.80;99.90
40848;DHT22;26570;50.962;5.340;2023-11-18T17:09:25;10.80;99.90
40848;DHT22;26570;50.962;5.340;2023-11-18T17:12:16;10.80;99.90
40848;DHT22;26570;50.962;5.340;2023-11-18T17:15:03;10.70;99.90
40848;DHT22;26570;50.962;5.340;2023-11-18T17:17:56;10.70;99.90
40848;DHT22;26570;50.962;5.340;2023-11-18T17:20:55;10.80;99.90
40848;DHT22;26570;50.962;5.340;2023-11-18T17:23:45;11.00;99.90
40848;DHT22;26570;50.962;5.340;2023-11-18T17:26:35;10.90;99.90
40848;DHT22;26570;50.962;5.340;2023-11-18T17:29:27;11.00;99.90
40848;DHT22;26570;50.962;5.340;2023-11-18T17:32:20;11.10;99.90
40848;DHT22;26570;50.962;5.340;2023-11-18T17:35:32;11.20;99.90
40848;DHT22;26570;50.962;5.340;2023-11-18T17:38:44;11.20;99.90
40848;DHT22;26570;50.962;5.340;2023-11-18T17:41:31;11.20;99.90
40848;DHT22;26570;50.962;5.340;2023-11-18T17:44:21;11.10;99.90
40848;DHT22;26570;50.962;5.340;2023-11-18T17:47:07;11.10;99.90
40848;DHT22;26570;50.962;5.340;2023-11-18T17:49:56;11.00;99.90
40848;DHT22;26570;50.962;5.340;2023-11-18T17:53:04;11.10;99.90
40848;DHT22;26570;50.962;5.340;2023-11-18T17:56:14;11.20;99.90
40848;DHT22;26570;50.962;5.340;2023-11-18T17:58:59;11.40;99.90
40848;DHT22;26570;50.962;5.340;2023-11-18T18:01:46;11.30;99.90
40848;DHT22;26570;50.962;5.340;2023-11-18T18:04:35;11.30;99.90
40848;DHT22;26570;50.962;5.340;2023-11-18T18:07:26;11.20;99.90
40848;DHT22;26570;50.962;5.340;2023-11-18T18:10:18;11.30;99.90
40848;DHT22;26570;50.962;5.340;2023-11-18T18:13:07;11.40;99.90
40848;DHT22;26570;50.962;5.340;2023-11-18T18:15:56;11.50;99.90
40848;DHT22;26570;50.962;5.340;2023-11-18T18:18:43;11.60;99.90
40848;DHT22;26570;50.962;5.340;2023-11-18T18:21:38;11.10;99.90
40848;DHT22;26570;50.962;5.340;2023-11-18T18:24:27;11.50;99.90
40848;DHT22;26570;50.962;5.340;2023-11-18T18:27:20;11.60;99.90
40848;DHT22;26570;50.962;5.340;2023-11-18T18:30:10;11.70;99.90
40848;DHT22;26570;50.962;5.340;2023-11-18T18:32:59;11.70;99.90
40848;DHT22;26570;50.962;5.340;2023-11-18T18:35:51;11.80;99.90
40848;DHT22;26570;50.962;5.340;2023-11-18T18:38:44;11.50;99.90
40848;DHT22;26570;50.962;5.340;2023-11-18T18:41:35;11.60;99.90
40848;DHT22;26570;50.962;5.340;2023-11-18T18:44:23;11.70;99.90
40848;DHT22;26570;50.962;5.340;2023-11-18T18:47:12;11.90;99.90